Time;durP1;ratioP1;P1;durP2;ratioP2;P2;SDS_P1;SDS_P2;PMS_P1;PMS_P2;Temp;Humidity;BMP_temperature;BMP_pressure;BME280_temperature;BME280_humidity;BME280_pressure;Samples;Min_cycle;Max_cycle;Signal;HPM_P1;HPM_P2
2022/04/06 00:01:04;;;;;;;6.65;6.00;;;;;;;8.25;72.55;98939.64;2120246;83;27630;-64
2022/04/06 00:04:06;;;;;;;9.35;6.83;;;;;;;8.26;72.70;98938.69;2143585;83;28812;-64
2022/04/06 00:07:08;;;;;;;7.70;6.85;;;;;;;8.27;72.69;98928.41;2142614;83;32368;-66
2022/04/06 00:10:12;;;;;;;8.63;6.67;;;;;;;8.28;72.67;98928.78;2133496;83;34119;-65
2022/04/06 00:13:14;;;;;;;8.03;6.72;;;;;;;8.29;72.60;98929.17;2144217;83;29025;-63
2022/04/06 00:16:16;;;;;;;9.05;6.83;;;;;;;8.31;72.71;98937.45;2143616;82;27598;-65
2022/04/06 00:19:18;;;;;;;7.30;6.62;;;;;;;8.32;72.60;98932.98;2144086;83;29070;-63
2022/04/06 00:22:20;;;;;;;7.05;6.35;;;;;;;8.33;72.72;98938.21;2143746;83;31658;-65
2022/04/06 00:25:22;;;;;;;7.90;7.08;;;;;;;8.35;72.68;98946.14;2138966;83;33398;-65
2022/04/06 00:28:24;;;;;;;10.60;7.62;;;;;;;8.36;72.71;98950.50;2115208;82;30386;-65
2022/04/06 00:31:25;;;;;;;9.75;7.40;;;;;;;8.38;72.77;98950.42;2146649;82;27568;-65
2022/04/06 00:37:46;;;;;;;9.68;7.10;;;;;;;8.36;72.87;98942.03;2093648;83;32512;-65
2022/04/06 00:40:48;;;;;;;12.98;7.60;;;;;;;8.36;72.95;98942.03;2101345;83;33486;-65
2022/04/06 00:44:15;;;;;;;8.65;6.97;;;;;;;8.35;72.91;98944.81;2128428;83;29928;-65
2022/04/06 00:47:18;;;;;;;9.28;7.30;;;;;;;8.35;72.89;98942.98;2127236;83;27825;-65
2022/04/06 00:50:23;;;;;;;11.12;7.55;;;;;;;8.32;72.96;98945.84;2128248;83;28544;-64
2022/04/06 00:53:24;;;;;;;;;;;;;;;8.35;72.98;98952.32;2130769;83;32860;-65
2022/04/06 00:56:26;;;;;;;8.03;6.55;;;;;;;8.36;73.03;98954.50;2116152;83;32999;-64
2022/04/06 00:59:31;;;;;;;9.33;6.47;;;;;;;8.35;73.04;98950.98;2128051;83;29874;-65
2022/04/06 01:02:33;;;;;;;8.25;7.00;;;;;;;8.37;73.16;98958.88;2098663;83;28117;-65
2022/04/06 01:05:35;;;;;;;7.95;6.83;;;;;;;8.38;73.14;98955.75;2109462;83;29512;-64
2022/04/06 01:08:37;;;;;;;7.40;6.62;;;;;;;8.40;73.08;98953.85;2096893;83;31890;-64
2022/04/06 01:11:39;;;;;;;7.83;6.85;;;;;;;8.42;73.13;98957.28;2099887;84;34239;-64
2022/04/06 01:14:41;;;;;;;7.70;6.53;;;;;;;8.42;73.15;98948.79;2142503;82;30211;-65
2022/04/06 01:17:44;;;;;;;9.80;7.55;;;;;;;8.44;73.10;98960.23;2126328;82;27620;-65
2022/04/06 01:20:45;;;;;;;7.60;6.83;;;;;;;8.46;73.19;98955.66;2111013;84;29230;-65
2022/04/06 01:23:48;;;;;;;8.95;7.55;;;;;;;8.49;73.15;98953.30;2111087;84;31593;-65
2022/04/06 01:26:50;;;;;;;8.50;7.60;;;;;;;8.50;73.19;98952.34;2131048;82;33975;-65
2022/04/06 01:29:52;;;;;;;8.45;7.53;;;;;;;8.54;73.15;98959.21;2122666;82;29038;-65
2022/04/06 01:32:57;;;;;;;8.30;7.45;;;;;;;8.56;73.17;98959.98;2145174;82;27645;-65
2022/04/06 01:36:00;;;;;;;9.53;7.75;;;;;;;8.59;73.17;98954.45;2141806;82;28711;-65
2022/04/06 01:39:02;;;;;;;8.78;7.70;;;;;;;8.61;73.18;98955.67;2146815;82;31836;-66
2022/04/06 01:42:06;;;;;;;9.73;8.68;;;;;;;8.63;73.11;98958.62;2122873;82;33397;-65
2022/04/06 01:45:09;;;;;;;11.50;9.37;;;;;;;8.65;73.09;98956.71;2111587;84;29005;-65
2022/04/06 01:48:11;;;;;;;9.25;8.30;;;;;;;8.68;73.06;98966.81;2146727;82;27684;-65
2022/04/06 01:54:32;;;;;;;11.73;10.10;;;;;;;8.71;72.98;98965.30;2147240;82;32269;-65
2022/04/06 01:57:35;;;;;;;11.35;9.75;;;;;;;8.71;72.98;98966.63;2119311;82;33405;-65
2022/04/06 02:00:37;;;;;;;10.53;9.40;;;;;;;8.71;73.04;98966.14;2117648;82;30357;-65
2022/04/06 02:03:39;;;;;;;9.95;8.95;;;;;;;8.73;73.04;98970.06;2147513;82;28166;-64
2022/04/06 02:06:43;;;;;;;10.50;9.40;;;;;;;8.73;73.11;98962.05;2146239;82;29349;-64
2022/04/06 02:09:45;;;;;;;10.90;9.38;;;;;;;8.74;73.10;98970.45;2126694;82;31955;-64
2022/04/06 02:12:48;;;;;;;10.68;9.58;;;;;;;8.75;73.21;98968.16;2119993;82;33377;-64
2022/04/06 02:15:49;;;;;;;10.18;9.15;;;;;;;8.75;73.35;98967.66;2146153;82;30524;-64
2022/04/06 02:18:51;;;;;;;11.20;10.05;;;;;;;8.77;73.40;98963.58;2146624;82;27760;-65
2022/04/06 02:21:53;;;;;;;11.43;10.00;;;;;;;8.77;73.59;98965.76;2125156;82;29077;-65
2022/04/06 02:24:55;;;;;;;13.25;10.63;;;;;;;8.79;73.65;98961.18;2120475;82;32243;-64
2022/04/06 02:27:57;;;;;;;11.45;10.28;;;;;;;8.81;73.75;98967.74;2147005;82;33722;-65
2022/04/06 02:30:59;;;;;;;10.93;9.83;;;;;;;8.83;73.79;98958.32;2144790;82;29651;-65
2022/04/06 02:34:01;;;;;;;14.25;10.18;;;;;;;8.83;73.83;98963.66;2146891;82;27668;-64
2022/04/06 02:37:04;;;;;;;13.43;10.75;;;;;;;8.81;73.96;98968.62;2145889;82;29890;-64
2022/04/06 02:40:07;;;;;;;12.73;10.85;;;;;;;8.81;73.92;98967.28;2146373;82;31903;-65
2022/04/06 02:43:09;;;;;;;14.98;11.63;;;;;;;8.84;73.96;98970.72;2110805;84;33813;-64
2022/04/06 02:46:11;;;;;;;13.48;11.57;;;;;;;8.83;73.86;98965.00;2135740;82;30512;-65
2022/04/06 02:49:13;;;;;;;13.65;11.93;;;;;;;8.83;73.85;98963.17;2147286;82;27603;-64
2022/04/06 02:52:17;;;;;;;11.97;10.48;;;;;;;8.83;73.87;98965.84;2146895;82;30056;-64
2022/04/06 02:55:19;;;;;;;12.55;11.25;;;;;;;8.83;73.79;98966.33;2136641;82;31906;-65
2022/04/06 02:58:20;;;;;;;14.30;11.78;;;;;;;8.80;73.73;98967.36;2138540;82;33831;-64
2022/04/06 03:01:22;;;;;;;18.98;13.03;;;;;;;8.78;73.75;98970.15;2131019;82;30518;-64
2022/04/06 03:04:24;;;;;;;14.58;11.53;;;;;;;8.79;73.82;98963.85;2111262;84;27623;-65
2022/04/06 03:07:26;;;;;;;12.20;10.58;;;;;;;8.79;73.78;98971.86;2111275;82;28646;-65
2022/04/06 03:10:28;;;;;;;11.80;10.55;;;;;;;8.78;73.79;98970.15;2140546;82;31404;-65
2022/04/06 03:13:30;;;;;;;13.15;10.60;;;;;;;8.78;73.71;98967.94;2146985;82;33824;-65
2022/04/06 03:16:32;;;;;;;13.25;10.10;;;;;;;8.79;73.78;98972.33;2146327;82;30049;-65
2022/04/06 03:19:34;;;;;;;10.68;8.70;;;;;;;8.79;73.76;98967.86;2147760;82;27624;-65
2022/04/06 03:22:36;;;;;;;8.83;7.92;;;;;;;8.80;73.75;98965.56;2147041;82;28690;-65
2022/04/06 03:25:37;;;;;;;9.63;7.35;;;;;;;8.80;73.75;98972.70;2134238;82;32207;-65
2022/04/06 03:28:40;;;;;;;8.43;7.55;;;;;;;8.80;73.74;98970.91;2107723;84;34275;-64
2022/04/06 03:31:41;;;;;;;10.15;7.22;;;;;;;8.81;73.77;98971.30;2107906;84;29385;-65
2022/04/06 03:34:43;;;;;;;11.12;7.55;;;;;;;8.82;73.88;98969.46;2136060;83;27836;-65
2022/04/06 03:37:45;;;;;;;7.95;6.65;;;;;;;8.83;73.85;98971.67;2128435;83;29021;-65
2022/04/06 03:40:47;;;;;;;8.03;6.95;;;;;;;8.84;73.89;98981.40;2143478;83;33151;-66
2022/04/06 03:43:49;;;;;;;10.15;7.65;;;;;;;8.84;73.99;98984.07;2143328;82;34329;-65
2022/04/06 03:46:53;;;;;;;9.25;6.83;;;;;;;8.84;74.09;98972.05;2142791;83;30176;-65
2022/04/06 03:49:55;;;;;;;9.05;7.35;;;;;;;8.84;74.16;98970.72;2144103;82;27754;-65
2022/04/06 03:52:57;;;;;;;7.30;6.20;;;;;;;8.84;74.18;98968.89;2144115;83;29880;-65
2022/04/06 03:55:59;;;;;;;7.72;6.95;;;;;;;8.83;74.28;98968.52;2126959;83;32121;-66
2022/04/06 03:59:01;;;;;;;9.90;8.25;;;;;;;8.84;74.30;98978.73;2107891;84;33378;-65
2022/04/06 04:02:04;;;;;;;10.82;8.68;;;;;;;8.83;74.29;98975.68;2107619;84;30172;-66
2022/04/06 04:05:07;;;;;;;10.13;9.13;;;;;;;8.83;74.39;98978.34;2113413;83;27775;-65
2022/04/06 04:08:09;;;;;;;11.08;9.98;;;;;;;8.81;74.39;98976.62;2112469;82;29519;-65
2022/04/06 04:11:10;;;;;;;11.75;10.55;;;;;;;8.83;74.47;98985.02;2107921;84;30865;-65
2022/04/06 04:14:12;;;;;;;11.48;10.38;;;;;;;8.83;74.51;98981.02;2107457;84;34172;-65
2022/04/06 04:17:14;;;;;;;11.88;10.68;;;;;;;8.84;74.59;98988.92;2141681;83;29940;-65
2022/04/06 04:20:16;;;;;;;13.40;10.93;;;;;;;8.84;74.65;98984.91;2143877;83;27705;-65
2022/04/06 04:23:18;;;;;;;15.75;14.15;;;;;;;8.84;74.67;98985.41;2144088;82;28649;-64
2022/04/06 04:26:20;;;;;;;17.42;15.20;;;;;;;8.83;74.69;98981.86;2138425;82;31660;-65
2022/04/06 04:29:22;;;;;;;16.05;13.88;;;;;;;8.83;74.74;98981.86;2143443;82;33872;-64
2022/04/06 04:32:24;;;;;;;15.45;13.95;;;;;;;8.83;74.75;98982.36;2111171;84;29441;-65
2022/04/06 04:35:25;;;;;;;16.27;14.65;;;;;;;8.83;74.81;98980.52;2121984;82;28238;-66
2022/04/06 04:38:27;;;;;;;18.87;15.43;;;;;;;8.84;74.83;98982.24;2118526;82;29194;-66
2022/04/06 04:41:30;;;;;;;19.40;16.48;;;;;;;8.84;74.83;98986.25;2120430;82;31476;-66
2022/04/06 04:44:32;;;;;;;19.10;17.20;;;;;;;8.85;74.88;98985.79;2111008;82;33830;-66
2022/04/06 04:47:33;;;;;;;20.82;18.62;;;;;;;8.88;74.93;98989.11;2147065;82;30745;-66
2022/04/06 04:50:35;;;;;;;20.97;18.85;;;;;;;8.91;74.93;98984.91;2147523;82;27686;-66
2022/04/06 04:53:37;;;;;;;21.45;19.12;;;;;;;8.93;74.87;98986.14;2127961;82;29886;-64
2022/04/06 04:56:41;;;;;;;19.48;17.37;;;;;;;8.95;74.93;98985.07;2115822;82;31090;-66
2022/04/06 04:59:42;;;;;;;18.20;16.32;;;;;;;8.96;74.94;98984.61;2111242;84;34268;-66
2022/04/06 05:02:44;;;;;;;18.95;17.02;;;;;;;8.97;74.88;98981.83;2143860;82;29367;-65
2022/04/06 05:05:49;;;;;;;19.67;17.62;;;;;;;9.03;74.94;98985.07;2127286;82;27672;-66
2022/04/06 05:08:52;;;;;;;19.70;17.60;;;;;;;9.04;74.80;98990.80;2120625;82;29156;-65
2022/04/06 05:11:55;;;;;;;13.68;12.30;;;;;;;9.07;74.84;98989.27;2147576;82;31125;-65
2022/04/06 05:14:59;;;;;;;17.35;15.50;;;;;;;9.09;74.78;98994.04;2112297;82;34161;-63
2022/04/06 05:18:00;;;;;;;17.12;14.50;;;;;;;9.12;74.76;98989.80;2110347;84;30534;-64
2022/04/06 05:21:02;;;;;;;13.98;12.58;;;;;;;9.16;74.80;98998.01;2123444;82;27668;-65
2022/04/06 05:24:05;;;;;;;13.98;12.58;;;;;;;9.20;74.70;98995.52;2146776;82;29550;-63
2022/04/06 05:27:07;;;;;;;12.45;11.25;;;;;;;9.25;74.66;99001.89;2111371;82;30874;-63
2022/04/06 05:30:12;;;;;;;15.28;12.00;;;;;;;9.28;74.63;98999.88;2131632;82;34202;-65
2022/04/06 05:33:14;;;;;;;13.53;11.30;;;;;;;9.32;74.61;99007.23;2143722;82;29325;-65
2022/04/06 05:36:15;;;;;;;13.80;11.63;;;;;;;9.36;74.48;99002.04;2146466;82;27590;-65
2022/04/06 05:39:17;;;;;;;15.40;10.82;;;;;;;9.38;74.42;99009.98;2146874;82;28456;-65
2022/04/06 05:42:19;;;;;;;14.38;10.72;;;;;;;9.42;74.46;99011.50;2120072;82;31392;-64
2022/04/06 05:45:21;;;;;;;11.93;9.85;;;;;;;9.44;74.43;99013.56;2125853;82;33711;-64
2022/04/06 05:48:23;;;;;;;14.90;11.45;;;;;;;9.48;74.40;99014.25;2143104;82;30643;-65
2022/04/06 05:51:26;;;;;;;13.80;11.68;;;;;;;9.49;74.36;99018.14;2111520;84;27789;-64
2022/04/06 05:54:27;;;;;;;13.90;10.28;;;;;;;9.51;74.37;99020.23;2110454;84;28688;-64
2022/04/06 05:57:30;;;;;;;11.60;10.38;;;;;;;9.55;74.30;99020.88;2143023;82;31019;-66
2022/04/06 06:00:32;;;;;;;15.40;10.75;;;;;;;9.60;74.43;99017.44;2141360;82;33122;-67
2022/04/06 06:03:35;;;;;;;12.60;9.20;;;;;;;9.65;74.30;99022.00;2111084;84;29857;-65
2022/04/06 06:06:36;;;;;;;13.70;9.35;;;;;;;9.70;74.29;99029.22;2141207;82;27685;-65
2022/04/06 06:09:38;;;;;;;12.50;9.45;;;;;;;9.74;74.17;99029.89;2146373;82;29021;-66
2022/04/06 06:12:41;;;;;;;10.85;8.60;;;;;;;9.79;74.20;99032.25;2145539;82;30950;-64
2022/04/06 06:15:44;;;;;;;12.13;8.33;;;;;;;9.85;74.17;99031.36;2145391;82;33764;-66
2022/04/06 06:18:47;;;;;;;10.10;7.62;;;;;;;9.92;74.07;99037.16;2146535;82;29370;-66
2022/04/06 06:21:49;;;;;;;10.35;7.30;;;;;;;10.01;73.97;99033.84;2147667;82;27702;-65
2022/04/06 06:24:50;;;;;;;9.53;7.10;;;;;;;10.12;73.87;99026.92;2145564;82;29331;-65
2022/04/06 06:27:53;;;;;;;10.00;7.58;;;;;;;10.21;73.71;99028.95;2146017;82;31864;-65
2022/04/06 06:30:55;;;;;;;10.10;6.85;;;;;;;10.30;73.79;99030.14;2118371;83;33629;-66
2022/04/06 06:33:59;;;;;;;9.78;6.42;;;;;;;10.38;73.63;99037.64;2121088;83;30743;-66
2022/04/06 06:37:01;;;;;;;7.25;6.30;;;;;;;10.46;73.55;99036.67;2118463;83;27671;-66
2022/04/06 06:40:04;;;;;;;11.38;6.67;;;;;;;10.54;73.42;99028.09;2144425;82;28587;-65
2022/04/06 06:43:06;;;;;;;9.53;5.97;;;;;;;10.60;73.34;99036.55;2117277;83;31018;-65
2022/04/06 06:46:09;;;;;;;8.50;6.42;;;;;;;10.66;73.11;99040.62;2133484;83;34150;-66
2022/04/06 06:49:11;;;;;;;8.60;5.92;;;;;;;10.69;72.82;99038.20;2127579;83;30298;-66
2022/04/06 06:52:14;;;;;;;8.65;5.40;;;;;;;10.71;72.85;99047.86;2141288;82;27655;-66
2022/04/06 06:55:18;;;;;;;5.53;4.78;;;;;;;10.76;72.79;99046.19;2107865;84;28877;-66
2022/04/06 06:58:21;;;;;;;8.63;5.67;;;;;;;10.78;72.63;99047.78;2118022;83;31216;-65
2022/04/06 07:01:23;;;;;;;8.18;5.42;;;;;;;10.87;72.75;99047.61;2112970;83;33615;-66
2022/04/06 07:04:25;;;;;;;5.17;4.55;;;;;;;10.94;72.72;99049.36;2140160;83;30442;-66
2022/04/06 07:07:26;;;;;;;5.60;4.80;;;;;;;11.05;72.64;99056.64;2112473;83;27694;-67
2022/04/06 07:10:29;;;;;;;5.83;4.90;;;;;;;11.10;72.50;99054.50;2143442;83;28588;-66
2022/04/06 07:13:32;;;;;;;6.33;4.72;;;;;;;11.15;72.18;99048.33;2123503;82;30550;-65
2022/04/06 07:16:33;;;;;;;7.00;5.03;;;;;;;11.15;72.12;99049.67;2113806;83;32875;-65
2022/04/06 07:19:35;;;;;;;7.20;5.33;;;;;;;11.22;72.21;99044.72;2119914;83;29313;-66
2022/04/06 07:22:38;;;;;;;6.53;4.00;;;;;;;11.35;72.26;99040.16;2113887;82;27815;-64
2022/04/06 07:25:40;;;;;;;5.90;4.20;;;;;;;11.52;72.27;99046.11;2151288;81;29534;-65
2022/04/06 07:28:44;;;;;;;6.42;4.35;;;;;;;11.66;71.90;99042.41;2135898;81;31079;-65
2022/04/06 07:31:47;;;;;;;5.53;3.85;;;;;;;11.75;71.85;99045.73;2108477;83;32978;-64
2022/04/06 07:34:49;;;;;;;6.30;3.75;;;;;;;11.84;71.60;99047.72;2134142;83;30521;-65
2022/04/06 07:37:52;;;;;;;4.85;4.25;;;;;;;12.03;71.57;99054.41;2139997;82;27631;-65
2022/04/06 07:40:54;;;;;;;5.80;3.70;;;;;;;12.16;71.12;99048.47;2139485;83;28827;-66
2022/04/06 07:43:57;;;;;;;6.17;3.80;;;;;;;12.28;70.98;99047.19;2143531;83;32221;-65
2022/04/06 07:47:00;;;;;;;6.67;3.77;;;;;;;12.34;70.69;99052.56;2143486;83;34230;-65
2022/04/06 07:50:04;;;;;;;4.80;3.90;;;;;;;12.42;70.58;99051.47;2119656;83;30525;-65
2022/04/06 07:53:06;;;;;;;5.70;4.33;;;;;;;12.42;70.26;99052.34;2127028;83;27791;-65
2022/04/06 07:56:08;;;;;;;5.33;4.67;;;;;;;12.41;70.24;99050.63;2108443;83;28711;-65
2022/04/06 07:59:10;;;;;;;5.53;4.53;;;;;;;12.44;69.96;99050.86;2142884;83;30992;-65
2022/04/06 08:02:12;;;;;;;7.78;5.53;;;;;;;12.46;69.97;99055.63;2121593;83;34248;-66
2022/04/06 08:05:14;;;;;;;6.12;5.10;;;;;;;12.46;69.84;99056.97;2121542;83;30577;-65
2022/04/06 08:08:17;;;;;;;10.82;5.22;;;;;;;12.43;69.68;99055.86;2142997;83;27607;-66
2022/04/06 08:11:20;;;;;;;8.58;6.87;;;;;;;12.43;69.77;99065.27;2138186;83;29832;-65
2022/04/06 08:14:22;;;;;;;9.30;7.08;;;;;;;12.45;69.59;99074.06;2115391;83;31990;-66
2022/04/06 08:17:25;;;;;;;8.45;6.15;;;;;;;12.44;69.34;99067.84;2107780;84;32931;-65
2022/04/06 08:20:27;;;;;;;7.42;5.90;;;;;;;12.45;69.19;99071.37;2108060;83;29967;-66
2022/04/06 08:23:30;;;;;;;9.18;6.12;;;;;;;12.42;69.00;99073.83;2143564;83;28196;-65
2022/04/06 08:26:32;;;;;;;7.53;5.35;;;;;;;12.42;68.99;99087.25;2144078;83;29463;-65
2022/04/06 08:29:34;;;;;;;6.58;5.50;;;;;;;12.38;69.04;99084.42;2144113;82;32410;-65
2022/04/06 08:32:37;;;;;;;13.50;7.60;;;;;;;12.40;69.02;99088.36;2118779;83;33953;-64
2022/04/06 08:35:40;;;;;;;6.83;4.90;;;;;;;12.41;69.01;99092.25;2111317;83;30534;-64
2022/04/06 08:38:54;;;;;;;10.65;8.08;;;;;;;12.39;68.69;99094.70;2112960;83;28232;-64
2022/04/06 08:41:56;;;;;;;13.85;8.75;;;;;;;12.34;68.54;99088.31;2130158;83;28692;-63
2022/04/06 08:44:58;;;;;;;13.08;9.60;;;;;;;12.30;68.70;99086.36;2143630;83;32193;-64
2022/04/06 08:48:02;;;;;;;10.85;7.53;;;;;;;12.33;68.82;99090.62;2141363;81;34280;-64
2022/04/06 08:51:09;;;;;;;8.68;6.78;;;;;;;12.42;69.23;99092.63;2137606;82;30175;-65
2022/04/06 08:54:11;;;;;;;8.70;6.35;;;;;;;12.54;69.21;99088.14;2118979;83;27696;-64
2022/04/06 08:57:14;;;;;;;12.23;6.37;;;;;;;12.66;69.21;99084.13;2123858;83;29927;-65
2022/04/06 09:00:18;;;;;;;9.55;5.97;;;;;;;12.74;69.15;99088.42;2117751;83;31044;-65
2022/04/06 09:03:22;;;;;;;6.60;6.00;;;;;;;12.82;69.31;99089.17;2144505;82;33729;-65
2022/04/06 09:06:26;;;;;;;8.45;6.25;;;;;;;12.84;69.03;99093.44;2144583;82;29327;-65
2022/04/06 09:09:27;;;;;;;10.00;6.83;;;;;;;12.85;68.94;99098.30;2125354;83;27747;-65
2022/04/06 09:12:30;;;;;;;7.75;6.95;;;;;;;12.80;68.77;99097.33;2139108;82;29812;-65
2022/04/06 09:15:31;;;;;;;9.93;7.85;;;;;;;12.78;68.89;99094.41;2107938;84;31917;-64
2022/04/06 09:18:40;;;;;;;10.68;8.68;;;;;;;12.80;69.01;99098.67;2108569;83;34120;-65
2022/04/06 09:21:50;;;;;;;13.45;9.70;;;;;;;12.78;68.85;99092.56;2128355;83;29370;-64
2022/04/06 09:25:03;;;;;;;10.43;9.08;;;;;;;12.85;68.88;99087.08;2135647;81;27720;-64
2022/04/06 09:28:12;;;;;;;14.53;10.88;;;;;;;12.95;69.00;99082.31;2102261;82;28674;-65
2022/04/06 09:31:16;;;;;;;13.98;9.45;;;;;;;13.06;68.87;99087.71;2143669;82;31580;-65
2022/04/06 09:34:23;;;;;;;14.53;9.93;;;;;;;13.16;68.83;99078.39;2117131;83;33776;-64
2022/04/06 09:37:31;;;;;;;13.03;10.08;;;;;;;13.24;68.85;99075.11;2118576;83;29231;-64
2022/04/06 09:40:34;;;;;;;9.45;8.23;;;;;;;13.27;68.66;99067.64;2107229;84;27681;-65
2022/04/06 09:43:36;;;;;;;11.18;8.40;;;;;;;13.36;68.71;99068.23;2107659;84;29895;-65
2022/04/06 09:50:16;;;;;;;11.68;9.15;;;;;;;13.42;68.24;99069.59;2130591;83;33088;-65
2022/04/06 09:53:19;;;;;;;12.07;9.05;;;;;;;13.38;68.07;99067.62;2143859;83;29547;-64
2022/04/06 09:56:23;;;;;;;10.80;8.15;;;;;;;13.37;68.04;99071.28;2143024;83;27689;-63
2022/04/06 09:59:27;;;;;;;9.38;8.28;;;;;;;13.39;68.05;99065.80;2143710;81;32331;-64
2022/04/06 10:02:29;;;;;;;9.95;8.93;;;;;;;13.42;68.21;99069.59;2114368;83;31027;-65
2022/04/06 10:05:33;;;;;;;9.50;8.20;;;;;;;13.54;68.42;99060.17;2123997;83;33793;-64
2022/04/06 10:08:34;;;;;;;11.35;9.05;;;;;;;13.73;68.31;99054.11;2137287;83;29528;-64
2022/04/06 10:11:38;;;;;;;18.48;11.75;;;;;;;13.87;68.21;99050.28;2109271;83;27653;-64
2022/04/06 10:14:41;;;;;;;17.20;13.15;;;;;;;13.91;67.83;99051.23;2141434;82;29511;-65
2022/04/06 10:17:46;;;;;;;19.65;13.78;;;;;;;13.85;67.67;99051.73;2142673;83;31035;-64
2022/04/06 10:21:33;;;;;;;13.48;11.57;;;;;;;13.79;67.59;99049.58;2133326;83;33696;-63
2022/04/06 10:25:02;;;;;;;19.85;12.82;;;;;;;13.68;67.58;99045.92;2112681;83;30188;-65
2022/04/06 10:28:10;;;;;;;18.35;13.50;;;;;;;13.57;67.52;99057.23;2116118;83;27646;-65
2022/04/06 10:31:16;;;;;;;19.12;11.97;;;;;;;13.50;67.65;99055.04;2107442;83;28674;-66
2022/04/06 10:34:30;;;;;;;14.93;10.38;;;;;;;13.49;67.75;99050.64;2133645;83;32197;-65
2022/04/06 10:37:31;;;;;;;15.48;10.05;;;;;;;13.49;67.62;99051.98;2135332;83;32961;-64
2022/04/06 10:40:55;;;;;;;13.25;9.25;;;;;;;13.57;67.86;99046.47;2107513;84;29327;-64
2022/04/06 10:43:58;;;;;;;13.80;8.33;;;;;;;13.77;67.46;99044.30;2107240;84;27725;-64
2022/04/06 10:47:10;;;;;;;10.25;8.13;;;;;;;14.20;67.61;99040.34;2141767;83;29868;-64
2022/04/06 10:50:22;;;;;;;8.08;7.03;;;;;;;14.66;68.04;99028.28;2142274;83;31926;-63
2022/04/06 10:53:27;;;;;;;8.68;6.87;;;;;;;15.13;66.93;99019.71;2142485;83;33994;-65
2022/04/06 10:56:49;;;;;;;6.30;5.70;;;;;;;15.61;66.65;99015.90;2136768;83;35305;-65
2022/04/06 11:00:15;;;;;;;6.95;5.50;;;;;;;16.00;64.70;99015.08;2143452;82;27668;-65
2022/04/06 11:03:19;;;;;;;7.28;4.30;;;;;;;16.34;65.00;99020.86;2165277;81;29441;-65
2022/04/06 11:06:56;;;;;;;5.72;3.98;;;;;;;16.71;64.03;99011.11;2116502;83;31873;-65
2022/04/06 11:10:07;;;;;;;4.80;4.30;;;;;;;16.98;62.72;99004.05;2128440;83;34683;-65
2022/04/06 11:13:11;;;;;;;5.05;4.53;;;;;;;17.21;62.44;99001.78;2129379;83;29114;-66
2022/04/06 11:16:35;;;;;;;7.25;4.20;;;;;;;17.42;62.16;99005.56;2108770;83;27687;-66
2022/04/06 11:19:52;;;;;;;5.17;4.22;;;;;;;17.63;61.76;98992.25;2107314;84;29074;-66
2022/04/06 11:22:56;;;;;;;5.60;4.70;;;;;;;17.81;61.30;98997.66;2107480;84;31928;-66
2022/04/06 11:25:59;;;;;;;;;;;;;;;17.87;60.01;98986.20;2132323;83;33030;-65
2022/04/06 11:29:01;;;;;;;4.40;3.75;;;;;;;17.87;59.60;98994.33;2142216;82;29312;-64
2022/04/06 11:32:05;;;;;;;6.35;3.95;;;;;;;17.81;58.69;98994.11;2147816;82;28013;-65
2022/04/06 11:35:10;;;;;;;4.75;3.98;;;;;;;17.67;58.49;98993.66;2147674;82;28132;-65
2022/04/06 11:38:14;;;;;;;5.30;4.55;;;;;;;17.48;58.14;98992.44;2121271;82;31009;-65
2022/04/06 11:41:21;;;;;;;4.95;4.40;;;;;;;17.24;58.17;98996.08;2124275;82;34260;-65
2022/04/06 11:44:26;;;;;;;5.53;4.42;;;;;;;17.03;57.80;99000.88;2094338;82;27750;-65
2022/04/06 11:47:38;;;;;;;8.30;4.12;;;;;;;16.64;57.77;99001.87;2147529;82;27622;-66
2022/04/06 11:50:42;;;;;;;7.47;4.28;;;;;;;16.39;58.19;98997.44;2116028;82;28471;-65
2022/04/06 11:53:44;;;;;;;7.67;4.87;;;;;;;16.16;57.81;98990.16;2135995;82;31116;-64
2022/04/06 11:56:52;;;;;;;7.55;5.15;;;;;;;15.82;57.36;98980.66;2134500;82;33841;-64
2022/04/06 11:59:56;;;;;;;7.87;6.12;;;;;;;15.65;58.05;98984.42;2111450;82;30674;-65
2022/04/06 12:02:59;;;;;;;11.73;5.50;;;;;;;15.56;57.84;98977.66;2146617;82;27764;-66
2022/04/06 12:06:04;;;;;;;7.20;5.20;;;;;;;15.56;58.55;98973.11;2147141;82;29546;-64
2022/04/06 12:09:07;;;;;;;9.00;5.37;;;;;;;15.60;58.06;98967.78;2130049;82;30870;-64
2022/04/06 12:12:09;;;;;;;7.78;4.78;;;;;;;15.67;58.10;98967.23;2146600;82;34100;-65
2022/04/06 12:15:11;;;;;;;6.00;4.55;;;;;;;15.77;58.06;98962.67;2111963;82;30526;-64
2022/04/06 12:18:13;;;;;;;5.05;4.10;;;;;;;15.83;57.73;98955.84;2137612;82;27911;-63
2022/04/06 12:21:25;;;;;;;5.20;4.17;;;;;;;15.89;57.69;98960.20;2132905;82;28754;-65
2022/04/06 12:24:38;;;;;;;7.12;3.77;;;;;;;15.99;56.95;98945.84;2116687;82;32020;-64
2022/04/06 12:27:40;;;;;;;4.37;3.50;;;;;;;16.07;57.02;98953.58;2111869;84;32988;-65
2022/04/06 12:31:06;;;;;;;5.40;3.27;;;;;;;16.22;56.44;98949.91;2132575;82;29801;-66
2022/04/06 12:34:11;;;;;;;4.37;3.98;;;;;;;16.34;56.39;98954.64;2108442;84;27697;-66
2022/04/06 12:37:32;;;;;;;4.85;3.25;;;;;;;16.46;55.80;98943.67;2105809;83;28650;-65
2022/04/06 12:40:34;;;;;;;7.55;3.60;;;;;;;16.54;55.63;98941.06;2114387;83;32268;-65
2022/04/06 12:43:45;;;;;;;6.10;3.87;;;;;;;16.61;55.74;98942.67;2143066;83;33304;-65
2022/04/06 12:46:49;;;;;;;5.62;3.92;;;;;;;16.70;55.42;98939.09;2140399;81;30006;-65
2022/04/06 12:49:51;;;;;;;5.17;3.35;;;;;;;16.84;55.26;98933.66;2143561;83;28227;-64
2022/04/06 12:53:07;;;;;;;3.62;3.05;;;;;;;16.99;54.82;98928.13;2134043;82;29218;-64
2022/04/06 12:56:12;;;;;;;5.47;3.77;;;;;;;17.08;54.48;98923.66;2120706;83;31195;-65
2022/04/06 12:59:14;;;;;;;4.65;3.75;;;;;;;17.15;54.03;98918.00;2108214;84;34007;-64
2022/04/06 13:02:22;;;;;;;5.47;3.60;;;;;;;17.20;53.61;98912.64;2134822;83;30176;-64
2022/04/06 13:05:24;;;;;;;4.58;3.77;;;;;;;17.15;53.56;98918.00;2128393;82;27616;-64
2022/04/06 13:08:27;;;;;;;4.55;3.42;;;;;;;17.16;53.54;98908.88;2107777;84;28759;-63
2022/04/06 13:11:29;;;;;;;5.70;4.10;;;;;;;17.23;53.51;98906.41;2107819;84;31834;-65
2022/04/06 13:14:31;;;;;;;5.37;3.05;;;;;;;17.31;53.23;98901.58;2107980;84;34167;-63
2022/04/06 13:17:36;;;;;;;5.08;3.30;;;;;;;17.40;52.99;98901.98;2126774;81;30014;-68
2022/04/06 13:20:38;;;;;;;4.45;2.42;;;;;;;17.51;53.21;98898.20;2170251;81;37240;-66
2022/04/06 13:23:40;;;;;;;4.58;3.98;;;;;;;17.65;53.04;98897.29;2165846;81;28574;-65
2022/04/06 13:26:42;;;;;;;4.75;3.80;;;;;;;17.73;52.66;98896.02;2152447;81;32220;-66
2022/04/06 13:29:44;;;;;;;5.47;3.75;;;;;;;17.76;52.40;98887.58;2165994;81;32449;-66
2022/04/06 13:32:48;;;;;;;5.00;3.40;;;;;;;17.77;52.51;98883.87;2172953;81;30647;-64
2022/04/06 13:35:50;;;;;;;5.12;3.02;;;;;;;17.75;51.98;98881.30;2166198;81;27761;-65
2022/04/06 13:38:53;;;;;;;3.72;3.20;;;;;;;17.75;51.62;98873.17;2168406;81;29847;-65
2022/04/06 13:41:56;;;;;;;3.85;2.77;;;;;;;17.72;51.35;98864.52;2146110;81;31065;-64
2022/04/06 13:44:58;;;;;;;3.67;2.95;;;;;;;17.74;50.87;98859.80;2141274;81;33882;-64
2022/04/06 13:48:01;;;;;;;8.53;2.90;;;;;;;17.70;49.53;98857.05;2111067;83;29510;-66
2022/04/06 13:51:05;;;;;;;4.72;2.98;;;;;;;17.67;50.70;98854.17;2107085;84;27757;-65
2022/04/06 13:54:06;;;;;;;6.30;3.10;;;;;;;17.65;50.40;98853.47;2132112;83;29981;-66
2022/04/06 13:57:09;;;;;;;5.90;3.10;;;;;;;17.52;49.48;98851.16;2141892;81;31623;-66
2022/04/06 14:00:23;;;;;;;5.45;3.08;;;;;;;17.44;50.01;98849.76;2143809;81;33133;-67
2022/04/06 14:03:42;;;;;;;4.35;3.08;;;;;;;17.46;50.27;98837.75;2169362;81;30525;-66
2022/04/06 14:06:45;;;;;;;3.85;3.33;;;;;;;17.53;50.25;98841.20;2132209;81;27722;-64
2022/04/06 14:09:48;;;;;;;4.22;3.08;;;;;;;17.58;50.19;98838.36;2107799;84;28778;-65
2022/04/06 14:12:51;;;;;;;5.28;2.98;;;;;;;17.64;50.10;98835.52;2107647;84;30617;-65
2022/04/06 14:15:55;;;;;;;4.30;2.72;;;;;;;17.71;49.86;98827.09;2112798;83;33040;-66
2022/04/06 14:18:58;;;;;;;3.20;2.45;;;;;;;17.82;49.82;98811.08;2143772;83;29315;-66
2022/04/06 14:22:01;;;;;;;2.92;2.47;;;;;;;17.91;49.26;98806.08;2143873;82;27688;-67
2022/04/06 14:25:19;;;;;;;3.00;2.70;;;;;;;17.95;48.99;98807.95;2131476;82;29709;-68
2022/04/06 14:28:20;;;;;;;2.83;2.35;;;;;;;17.95;48.90;98798.98;2141537;83;32045;-65
2022/04/06 14:31:23;;;;;;;5.70;2.77;;;;;;;17.98;48.71;98799.53;2143090;82;34225;-67
2022/04/06 14:34:25;;;;;;;3.40;2.40;;;;;;;18.00;48.64;98793.45;2144135;83;29382;-67